LNI224 WIDD-WMKP
Flight info
| Callsign | LNI224 |
|---|---|
| Flight time | 0h 58m |
| Altitude | 34000 |
| Route | VJB A457 VKL R467 AGOSA A457 TEPUS GORVU1E |
| Aircraft | B739/M-SDE2E3FGHIRWXY/LB1 |
Departure
| Time | 2026-05-07 15:50 |
|---|---|
| Airport | Hang Nadim International Airport (WIDD) |
Arrival
| Time | 2026-05-07 16:49 |
|---|---|
| Airport | Penang International Airport (WMKP) |
| Time | Latitude | Longitude | Altitude | Speed | Heading |
|---|---|---|---|---|---|
| 2026-05-07 15:20 | 1.12364 | 104.11690 | 136 ft | 0 kts | 312° |
| 2026-05-07 15:41 | 1.12360 | 104.11695 | 136 ft | 2 kts | 312° |
| 2026-05-07 15:41 | 1.12349 | 104.11707 | 136 ft | 2 kts | 312° |
| 2026-05-07 15:42 | 1.12338 | 104.11719 | 136 ft | 2 kts | 313° |
| 2026-05-07 15:42 | 1.12327 | 104.11731 | 137 ft | 2 kts | 316° |
| 2026-05-07 15:42 | 1.12314 | 104.11742 | 137 ft | 2 kts | 334° |
| 2026-05-07 15:42 | 1.12302 | 104.11743 | 136 ft | 1 kts | 38° |
| 2026-05-07 15:43 | 1.12301 | 104.11742 | 136 ft | 0 kts | 39° |
| 2026-05-07 15:46 | 1.12313 | 104.11752 | 136 ft | 7 kts | 43° |
| 2026-05-07 15:46 | 1.12333 | 104.11812 | 136 ft | 14 kts | 105° |
| 2026-05-07 15:46 | 1.12378 | 104.11908 | 137 ft | 20 kts | 40° |
| 2026-05-07 15:47 | 1.12504 | 104.12019 | 136 ft | 27 kts | 41° |
| 2026-05-07 15:47 | 1.12653 | 104.12150 | 136 ft | 30 kts | 41° |
| 2026-05-07 15:47 | 1.12815 | 104.12293 | 136 ft | 32 kts | 41° |
| 2026-05-07 15:47 | 1.12988 | 104.12446 | 136 ft | 34 kts | 41° |
| 2026-05-07 15:48 | 1.13170 | 104.12606 | 136 ft | 36 kts | 41° |
| 2026-05-07 15:48 | 1.13230 | 104.12742 | 137 ft | 12 kts | 130° |
| 2026-05-07 15:48 | 1.13226 | 104.12748 | 137 ft | 0 kts | 129° |
| 2026-05-07 15:49 | 1.13221 | 104.12754 | 137 ft | 4 kts | 129° |
| 2026-05-07 15:49 | 1.13186 | 104.12794 | 137 ft | 11 kts | 134° |
| 2026-05-07 15:49 | 1.13112 | 104.12775 | 137 ft | 20 kts | 220° |
| 2026-05-07 15:50 | 1.12817 | 104.12515 | 135 ft | 93 kts | 221° |
| 2026-05-07 15:50 | 1.12167 | 104.11942 | 137 ft | 153 kts | 221° |
| 2026-05-07 15:50 | 1.11261 | 104.11129 | 235 ft | 191 kts | 223° |
| 2026-05-07 15:50 | 1.10347 | 104.10204 | 1065 ft | 180 kts | 231° |
| 2026-05-07 15:51 | 1.09586 | 104.09205 | 1758 ft | 186 kts | 232° |
| 2026-05-07 15:51 | 1.08752 | 104.08091 | 1997 ft | 212 kts | 232° |
| 2026-05-07 15:51 | 1.08033 | 104.06723 | 2210 ft | 235 kts | 258° |
| 2026-05-07 15:51 | 1.08149 | 104.05076 | 2686 ft | 245 kts | 290° |
| 2026-05-07 15:52 | 1.09096 | 104.03654 | 3072 ft | 261 kts | 315° |
| 2026-05-07 15:52 | 1.10494 | 104.02425 | 3568 ft | 273 kts | 319° |
| 2026-05-07 15:52 | 1.11965 | 104.01211 | 4372 ft | 275 kts | 320° |
| 2026-05-07 15:52 | 1.13442 | 103.99999 | 5181 ft | 276 kts | 320° |
| 2026-05-07 15:53 | 1.14939 | 103.98776 | 5936 ft | 280 kts | 320° |
| 2026-05-07 15:53 | 1.16458 | 103.97535 | 6664 ft | 284 kts | 320° |
| 2026-05-07 15:53 | 1.17989 | 103.96280 | 7371 ft | 286 kts | 320° |
| 2026-05-07 15:53 | 1.19538 | 103.95004 | 8073 ft | 290 kts | 320° |
| 2026-05-07 15:54 | 1.21003 | 103.93792 | 8756 ft | 293 kts | 320° |
| 2026-05-07 15:54 | 1.22577 | 103.92483 | 9495 ft | 296 kts | 320° |
| 2026-05-07 15:54 | 1.24159 | 103.91160 | 10195 ft | 298 kts | 320° |
| 2026-05-07 15:54 | 1.25532 | 103.90005 | 10793 ft | 299 kts | 320° |
| 2026-05-07 15:55 | 1.27124 | 103.88659 | 11474 ft | 301 kts | 320° |
| 2026-05-07 15:55 | 1.28800 | 103.87378 | 11962 ft | 311 kts | 329° |
| 2026-05-07 15:55 | 1.30744 | 103.86283 | 12198 ft | 328 kts | 334° |
| 2026-05-07 15:55 | 1.32797 | 103.85241 | 12738 ft | 334 kts | 334° |
| 2026-05-07 15:56 | 1.34878 | 103.84192 | 13386 ft | 336 kts | 334° |
| 2026-05-07 15:56 | 1.36968 | 103.83118 | 13965 ft | 339 kts | 334° |
| 2026-05-07 15:56 | 1.39070 | 103.82015 | 14504 ft | 343 kts | 334° |
| 2026-05-07 15:56 | 1.41182 | 103.80888 | 15046 ft | 346 kts | 333° |
| 2026-05-07 15:57 | 1.43312 | 103.79738 | 15588 ft | 350 kts | 333° |
| 2026-05-07 15:57 | 1.45459 | 103.78570 | 16122 ft | 353 kts | 333° |
| 2026-05-07 15:57 | 1.47624 | 103.77387 | 16668 ft | 356 kts | 333° |
| 2026-05-07 15:57 | 1.49807 | 103.76192 | 17180 ft | 360 kts | 333° |
| 2026-05-07 15:58 | 1.52013 | 103.74982 | 17713 ft | 363 kts | 334° |
| 2026-05-07 15:58 | 1.54236 | 103.73762 | 18204 ft | 367 kts | 334° |
| 2026-05-07 15:58 | 1.56482 | 103.72529 | 18647 ft | 369 kts | 334° |
| 2026-05-07 15:58 | 1.58741 | 103.71288 | 19104 ft | 372 kts | 334° |
| 2026-05-07 15:59 | 1.61015 | 103.70039 | 19554 ft | 374 kts | 334° |
| 2026-05-07 15:59 | 1.63309 | 103.68779 | 19996 ft | 377 kts | 334° |
| 2026-05-07 15:59 | 1.65616 | 103.67512 | 20423 ft | 380 kts | 334° |
| 2026-05-07 15:59 | 1.67935 | 103.66239 | 20856 ft | 382 kts | 334° |
| 2026-05-07 16:00 | 1.70274 | 103.64954 | 21281 ft | 385 kts | 334° |
| 2026-05-07 16:00 | 1.72598 | 103.63678 | 21687 ft | 387 kts | 334° |
| 2026-05-07 16:00 | 1.74999 | 103.62359 | 22102 ft | 390 kts | 334° |
| 2026-05-07 16:00 | 1.77382 | 103.61050 | 22503 ft | 393 kts | 334° |
| 2026-05-07 16:01 | 1.79750 | 103.59750 | 22902 ft | 395 kts | 334° |
| 2026-05-07 16:01 | 1.82167 | 103.58422 | 23300 ft | 397 kts | 334° |
| 2026-05-07 16:01 | 1.84595 | 103.57089 | 23648 ft | 400 kts | 334° |
| 2026-05-07 16:01 | 1.87037 | 103.55747 | 23969 ft | 401 kts | 333° |
| 2026-05-07 16:02 | 1.89490 | 103.54399 | 24301 ft | 403 kts | 333° |
| 2026-05-07 16:02 | 1.91954 | 103.53046 | 24632 ft | 405 kts | 333° |
| 2026-05-07 16:02 | 1.94362 | 103.51571 | 24943 ft | 409 kts | 324° |
| 2026-05-07 16:02 | 1.96477 | 103.49649 | 25253 ft | 414 kts | 313° |
| 2026-05-07 16:03 | 1.98313 | 103.47426 | 25577 ft | 416 kts | 310° |
| 2026-05-07 16:03 | 2.00118 | 103.45161 | 25891 ft | 418 kts | 310° |
| 2026-05-07 16:03 | 2.01925 | 103.42879 | 26208 ft | 420 kts | 310° |
| 2026-05-07 16:03 | 2.03747 | 103.40584 | 26528 ft | 421 kts | 310° |
| 2026-05-07 16:04 | 2.05574 | 103.38295 | 26848 ft | 423 kts | 310° |
| 2026-05-07 16:04 | 2.07420 | 103.35994 | 27159 ft | 425 kts | 310° |
| 2026-05-07 16:04 | 2.09279 | 103.33685 | 27463 ft | 427 kts | 310° |
| 2026-05-07 16:04 | 2.11146 | 103.31371 | 27772 ft | 429 kts | 310° |
| 2026-05-07 16:05 | 2.13022 | 103.29049 | 28077 ft | 430 kts | 310° |
| 2026-05-07 16:05 | 2.14905 | 103.26720 | 28372 ft | 432 kts | 310° |
| 2026-05-07 16:05 | 2.16799 | 103.24377 | 28674 ft | 434 kts | 310° |
| 2026-05-07 16:05 | 2.18703 | 103.22021 | 28955 ft | 436 kts | 310° |
| 2026-05-07 16:06 | 2.20611 | 103.19662 | 29243 ft | 438 kts | 310° |
| 2026-05-07 16:06 | 2.22530 | 103.17287 | 29522 ft | 439 kts | 310° |
| 2026-05-07 16:06 | 2.24454 | 103.14906 | 29829 ft | 441 kts | 310° |
| 2026-05-07 16:06 | 2.26380 | 103.12523 | 30107 ft | 442 kts | 310° |
| 2026-05-07 16:07 | 2.28166 | 103.10313 | 30323 ft | 443 kts | 310° |
| 2026-05-07 16:07 | 2.30083 | 103.07939 | 30545 ft | 445 kts | 310° |
| 2026-05-07 16:07 | 2.32031 | 103.05529 | 30772 ft | 447 kts | 310° |
| 2026-05-07 16:07 | 2.33990 | 103.03104 | 31004 ft | 449 kts | 310° |
| 2026-05-07 16:08 | 2.35955 | 103.00672 | 31220 ft | 451 kts | 310° |
| 2026-05-07 16:08 | 2.37930 | 102.98227 | 31436 ft | 452 kts | 310° |
| 2026-05-07 16:08 | 2.39909 | 102.95776 | 31662 ft | 454 kts | 310° |
| 2026-05-07 16:08 | 2.41897 | 102.93316 | 31867 ft | 456 kts | 310° |
| 2026-05-07 16:09 | 2.43894 | 102.90844 | 32076 ft | 458 kts | 310° |
| 2026-05-07 16:09 | 2.45896 | 102.88365 | 32290 ft | 459 kts | 310° |
| 2026-05-07 16:09 | 2.47906 | 102.85875 | 32503 ft | 461 kts | 310° |
| 2026-05-07 16:09 | 2.49924 | 102.83377 | 32705 ft | 462 kts | 310° |
| 2026-05-07 16:10 | 2.51945 | 102.80874 | 32914 ft | 464 kts | 309° |
| 2026-05-07 16:10 | 2.53974 | 102.78361 | 33121 ft | 465 kts | 309° |
| 2026-05-07 16:10 | 2.56009 | 102.75840 | 33331 ft | 466 kts | 309° |
| 2026-05-07 16:10 | 2.58052 | 102.73310 | 33528 ft | 468 kts | 309° |
| 2026-05-07 16:11 | 2.60100 | 102.70773 | 33724 ft | 469 kts | 309° |
| 2026-05-07 16:11 | 2.62150 | 102.68235 | 33880 ft | 469 kts | 309° |
| 2026-05-07 16:11 | 2.64204 | 102.65690 | 33878 ft | 472 kts | 309° |
| 2026-05-07 16:12 | 2.68341 | 102.60564 | 33890 ft | 475 kts | 309° |
| 2026-05-07 16:12 | 2.72509 | 102.55400 | 33899 ft | 479 kts | 309° |
| 2026-05-07 16:13 | 2.76709 | 102.50195 | 33892 ft | 483 kts | 309° |
| 2026-05-07 16:13 | 2.80910 | 102.44989 | 33895 ft | 485 kts | 309° |
| 2026-05-07 16:14 | 2.85161 | 102.39720 | 33891 ft | 488 kts | 309° |
| 2026-05-07 16:14 | 2.89431 | 102.34426 | 33886 ft | 490 kts | 309° |
| 2026-05-07 16:15 | 2.93718 | 102.29110 | 33886 ft | 491 kts | 309° |
| 2026-05-07 16:15 | 2.98015 | 102.23782 | 33881 ft | 492 kts | 309° |
| 2026-05-07 16:16 | 3.02317 | 102.18447 | 33881 ft | 493 kts | 309° |
| 2026-05-07 16:16 | 3.06626 | 102.13102 | 33881 ft | 493 kts | 309° |
| 2026-05-07 16:17 | 3.10933 | 102.07759 | 33889 ft | 494 kts | 309° |
| 2026-05-07 16:17 | 3.14520 | 102.03309 | 33879 ft | 494 kts | 309° |
| 2026-05-07 16:18 | 3.18835 | 101.97955 | 33890 ft | 494 kts | 309° |
| 2026-05-07 16:18 | 3.23154 | 101.92594 | 33882 ft | 495 kts | 309° |
| 2026-05-07 16:19 | 3.27472 | 101.87235 | 33889 ft | 495 kts | 309° |
| 2026-05-07 16:19 | 3.31792 | 101.81872 | 33891 ft | 495 kts | 309° |
| 2026-05-07 16:20 | 3.36112 | 101.76508 | 33886 ft | 495 kts | 310° |
| 2026-05-07 16:20 | 3.40434 | 101.71140 | 33891 ft | 495 kts | 309° |
| 2026-05-07 16:21 | 3.44752 | 101.65777 | 33893 ft | 495 kts | 310° |
| 2026-05-07 16:21 | 3.49069 | 101.60415 | 33891 ft | 495 kts | 310° |
| 2026-05-07 16:22 | 3.53385 | 101.55053 | 33887 ft | 495 kts | 310° |
| 2026-05-07 16:22 | 3.57701 | 101.49689 | 33887 ft | 493 kts | 310° |
| 2026-05-07 16:22 | 3.59798 | 101.47082 | 33865 ft | 479 kts | 310° |
| 2026-05-07 16:23 | 3.61878 | 101.44494 | 33862 ft | 462 kts | 310° |
| 2026-05-07 16:23 | 3.63831 | 101.42066 | 33867 ft | 448 kts | 310° |
| 2026-05-07 16:23 | 3.65779 | 101.39644 | 33880 ft | 446 kts | 310° |
| 2026-05-07 16:23 | 3.67742 | 101.37205 | 33466 ft | 453 kts | 310° |
| 2026-05-07 16:24 | 3.69714 | 101.34756 | 33047 ft | 450 kts | 310° |
| 2026-05-07 16:24 | 3.71673 | 101.32320 | 32545 ft | 447 kts | 310° |
| 2026-05-07 16:24 | 3.73611 | 101.29910 | 32055 ft | 441 kts | 309° |
| 2026-05-07 16:24 | 3.75519 | 101.27537 | 31581 ft | 434 kts | 309° |
| 2026-05-07 16:25 | 3.77406 | 101.25190 | 31126 ft | 431 kts | 309° |
| 2026-05-07 16:25 | 3.79282 | 101.22856 | 30649 ft | 430 kts | 309° |
| 2026-05-07 16:25 | 3.81155 | 101.20527 | 30166 ft | 428 kts | 309° |
| 2026-05-07 16:25 | 3.83017 | 101.18211 | 29648 ft | 427 kts | 309° |
| 2026-05-07 16:26 | 3.84874 | 101.15901 | 29140 ft | 424 kts | 309° |
| 2026-05-07 16:26 | 3.86716 | 101.13609 | 28653 ft | 421 kts | 309° |
| 2026-05-07 16:26 | 3.88544 | 101.11335 | 28180 ft | 418 kts | 309° |
| 2026-05-07 16:26 | 3.90364 | 101.09070 | 27714 ft | 415 kts | 309° |
| 2026-05-07 16:27 | 3.92167 | 101.06826 | 27257 ft | 413 kts | 310° |
| 2026-05-07 16:27 | 3.93960 | 101.04594 | 26802 ft | 410 kts | 310° |
| 2026-05-07 16:27 | 3.95744 | 101.02374 | 26356 ft | 408 kts | 310° |
| 2026-05-07 16:27 | 3.97519 | 101.00165 | 25889 ft | 406 kts | 310° |
| 2026-05-07 16:28 | 3.99288 | 100.97963 | 25440 ft | 405 kts | 310° |
| 2026-05-07 16:28 | 4.01050 | 100.95769 | 24986 ft | 404 kts | 310° |
| 2026-05-07 16:28 | 4.02807 | 100.93581 | 24540 ft | 403 kts | 310° |
| 2026-05-07 16:28 | 4.04562 | 100.91397 | 24099 ft | 402 kts | 310° |
| 2026-05-07 16:29 | 4.06308 | 100.89222 | 23656 ft | 401 kts | 310° |
| 2026-05-07 16:29 | 4.08049 | 100.87054 | 23155 ft | 400 kts | 310° |
| 2026-05-07 16:29 | 4.09788 | 100.84887 | 22691 ft | 398 kts | 310° |
| 2026-05-07 16:29 | 4.11519 | 100.82730 | 22219 ft | 395 kts | 310° |
| 2026-05-07 16:30 | 4.13238 | 100.80589 | 21804 ft | 393 kts | 310° |
| 2026-05-07 16:30 | 4.14942 | 100.78466 | 21377 ft | 390 kts | 310° |
| 2026-05-07 16:30 | 4.16700 | 100.76422 | 20928 ft | 382 kts | 320° |
| 2026-05-07 16:30 | 4.18864 | 100.74991 | 20502 ft | 367 kts | 337° |
| 2026-05-07 16:31 | 4.21163 | 100.73957 | 20089 ft | 358 kts | 339° |
| 2026-05-07 16:31 | 4.23402 | 100.73006 | 19694 ft | 350 kts | 340° |
| 2026-05-07 16:31 | 4.25624 | 100.72073 | 19298 ft | 343 kts | 340° |
| 2026-05-07 16:31 | 4.27802 | 100.71152 | 18913 ft | 336 kts | 340° |
| 2026-05-07 16:32 | 4.29932 | 100.70244 | 18533 ft | 330 kts | 340° |
| 2026-05-07 16:32 | 4.32043 | 100.69338 | 18161 ft | 331 kts | 339° |
| 2026-05-07 16:32 | 4.34167 | 100.68421 | 17750 ft | 335 kts | 339° |
| 2026-05-07 16:32 | 4.36323 | 100.67489 | 17353 ft | 340 kts | 339° |
| 2026-05-07 16:33 | 4.38510 | 100.66540 | 16956 ft | 343 kts | 339° |
| 2026-05-07 16:33 | 4.40696 | 100.65589 | 16543 ft | 342 kts | 339° |
| 2026-05-07 16:33 | 4.42875 | 100.64641 | 16156 ft | 341 kts | 339° |
| 2026-05-07 16:33 | 4.45045 | 100.63695 | 15763 ft | 340 kts | 339° |
| 2026-05-07 16:34 | 4.47210 | 100.62751 | 15374 ft | 338 kts | 339° |
| 2026-05-07 16:34 | 4.49365 | 100.61813 | 14978 ft | 338 kts | 339° |
| 2026-05-07 16:34 | 4.51520 | 100.60874 | 14584 ft | 337 kts | 339° |
| 2026-05-07 16:34 | 4.53670 | 100.59937 | 14195 ft | 337 kts | 339° |
| 2026-05-07 16:35 | 4.55823 | 100.58999 | 13791 ft | 337 kts | 339° |
| 2026-05-07 16:35 | 4.57969 | 100.58064 | 13373 ft | 336 kts | 339° |
| 2026-05-07 16:35 | 4.60112 | 100.57130 | 12979 ft | 335 kts | 339° |
| 2026-05-07 16:35 | 4.62242 | 100.56202 | 12585 ft | 333 kts | 338° |
| 2026-05-07 16:36 | 4.64364 | 100.55277 | 12195 ft | 331 kts | 338° |
| 2026-05-07 16:36 | 4.66471 | 100.54359 | 11819 ft | 330 kts | 338° |
| 2026-05-07 16:36 | 4.68568 | 100.53444 | 11441 ft | 328 kts | 338° |
| 2026-05-07 16:36 | 4.70657 | 100.52534 | 11108 ft | 325 kts | 338° |
| 2026-05-07 16:37 | 4.72711 | 100.51637 | 10761 ft | 319 kts | 338° |
| 2026-05-07 16:37 | 4.74716 | 100.50763 | 10413 ft | 310 kts | 337° |
| 2026-05-07 16:37 | 4.76660 | 100.49915 | 10180 ft | 297 kts | 337° |
| 2026-05-07 16:37 | 4.78508 | 100.49109 | 10047 ft | 283 kts | 337° |
| 2026-05-07 16:38 | 4.80279 | 100.48337 | 9774 ft | 274 kts | 337° |
| 2026-05-07 16:38 | 4.81994 | 100.47546 | 9448 ft | 269 kts | 328° |
| 2026-05-07 16:38 | 4.83334 | 100.46246 | 9168 ft | 271 kts | 307° |
| 2026-05-07 16:38 | 4.84481 | 100.44723 | 8857 ft | 278 kts | 307° |
| 2026-05-07 16:39 | 4.85664 | 100.43149 | 8547 ft | 285 kts | 307° |
| 2026-05-07 16:39 | 4.86862 | 100.41561 | 8188 ft | 286 kts | 307° |
| 2026-05-07 16:39 | 4.88063 | 100.39978 | 7853 ft | 285 kts | 307° |
| 2026-05-07 16:39 | 4.89269 | 100.38394 | 7529 ft | 285 kts | 307° |
| 2026-05-07 16:40 | 4.90470 | 100.36816 | 7190 ft | 285 kts | 307° |
| 2026-05-07 16:40 | 4.91668 | 100.35243 | 6906 ft | 280 kts | 307° |
| 2026-05-07 16:40 | 4.92830 | 100.33717 | 6660 ft | 271 kts | 307° |
| 2026-05-07 16:40 | 4.93971 | 100.32219 | 6450 ft | 270 kts | 307° |
| 2026-05-07 16:41 | 4.95112 | 100.30721 | 6226 ft | 271 kts | 307° |
| 2026-05-07 16:41 | 4.96244 | 100.29233 | 5992 ft | 272 kts | 307° |
| 2026-05-07 16:41 | 4.97392 | 100.27726 | 5761 ft | 272 kts | 307° |
| 2026-05-07 16:41 | 4.98537 | 100.26221 | 5529 ft | 272 kts | 307° |
| 2026-05-07 16:42 | 4.99683 | 100.24716 | 5298 ft | 271 kts | 307° |
| 2026-05-07 16:42 | 5.00826 | 100.23215 | 5071 ft | 270 kts | 307° |
| 2026-05-07 16:42 | 5.01963 | 100.21720 | 4847 ft | 269 kts | 307° |
| 2026-05-07 16:42 | 5.03097 | 100.20230 | 4618 ft | 268 kts | 307° |
| 2026-05-07 16:43 | 5.04374 | 100.18896 | 4362 ft | 266 kts | 327° |
| 2026-05-07 16:43 | 5.06000 | 100.18036 | 4168 ft | 263 kts | 333° |
| 2026-05-07 16:43 | 5.07621 | 100.17207 | 3945 ft | 261 kts | 332° |
| 2026-05-07 16:43 | 5.09226 | 100.16372 | 3725 ft | 256 kts | 332° |
| 2026-05-07 16:44 | 5.10775 | 100.15562 | 3495 ft | 246 kts | 332° |
| 2026-05-07 16:44 | 5.12264 | 100.14782 | 3286 ft | 236 kts | 333° |
| 2026-05-07 16:44 | 5.13796 | 100.14387 | 3060 ft | 226 kts | 7° |
| 2026-05-07 16:44 | 5.15184 | 100.14957 | 2936 ft | 209 kts | 33° |
| 2026-05-07 16:45 | 5.16358 | 100.15765 | 2761 ft | 201 kts | 34° |
| 2026-05-07 16:45 | 5.17470 | 100.16586 | 2599 ft | 197 kts | 38° |
| 2026-05-07 16:45 | 5.18502 | 100.17469 | 2426 ft | 193 kts | 41° |
| 2026-05-07 16:45 | 5.19503 | 100.18376 | 2319 ft | 193 kts | 41° |
| 2026-05-07 16:46 | 5.20498 | 100.19284 | 2080 ft | 191 kts | 41° |
| 2026-05-07 16:46 | 5.21444 | 100.20149 | 1834 ft | 177 kts | 41° |
| 2026-05-07 16:46 | 5.22312 | 100.20941 | 1669 ft | 159 kts | 40° |
| 2026-05-07 16:46 | 5.23087 | 100.21648 | 1437 ft | 145 kts | 41° |
| 2026-05-07 16:47 | 5.23823 | 100.22318 | 1273 ft | 144 kts | 41° |
| 2026-05-07 16:47 | 5.24581 | 100.23010 | 1075 ft | 149 kts | 41° |
| 2026-05-07 16:47 | 5.25346 | 100.23708 | 904 ft | 149 kts | 41° |
| 2026-05-07 16:47 | 5.26110 | 100.24404 | 726 ft | 148 kts | 41° |
| 2026-05-07 16:48 | 5.26865 | 100.25093 | 533 ft | 146 kts | 41° |
| 2026-05-07 16:48 | 5.27247 | 100.25442 | 424 ft | 146 kts | 42° |
| 2026-05-07 16:48 | 5.27470 | 100.25649 | 356 ft | 147 kts | 42° |
| 2026-05-07 16:48 | 5.28231 | 100.26329 | 127 ft | 145 kts | 42° |
| 2026-05-07 16:49 | 5.28959 | 100.26997 | 26 ft | 133 kts | 43° |
| 2026-05-07 16:49 | 5.29488 | 100.27479 | 22 ft | 72 kts | 43° |
| 2026-05-07 16:49 | 5.29712 | 100.27683 | 23 ft | 27 kts | 42° |
| 2026-05-07 16:49 | 5.29850 | 100.27798 | 25 ft | 25 kts | 25° |
| 2026-05-07 16:50 | 5.30008 | 100.27836 | 23 ft | 23 kts | 12° |
| 2026-05-07 16:50 | 5.30122 | 100.27822 | 22 ft | 13 kts | 283° |
| 2026-05-07 16:50 | 5.30075 | 100.27753 | 22 ft | 12 kts | 222° |